ASN logo
Accident
Last updated: 20 October 2017
Statuts:Enquête Préliminaire
Date:dimanche 2 août 2015
Heure:14:37
Type/Sous-type:Silhouette image of generic C208 model; specific model in this crash may look slightly different
Cessna 208B Grand Caravan EX
Compagnie:Air Choice One
Immatriculation: N942AC
Numéro de série: 208B-5202
Année de Fabrication: 2015
Moteurs: 1 Pratt & Whitney Canada PT6A-140
Equipage:victimes: 0 / à bord: 2
Passagers:victimes: 0 / à bord: 5
Total:victimes: 0 / à bord: 7
Dégats de l'appareil: Substantiels
Conséquences: Repaired
Lieu de l'accident:Chicago-O'Hare International Airport, IL (ORD) (   Etats-Unis d'Amérique)
Phase de vol: Au roulage (TXI)
Nature:Transport de Passagers Nat.
Aéroport de départ:Chicago-O'Hare International Airport, IL (ORD/KORD), Etats-Unis d'Amérique
Aéroport de destination:Burlington Airport, IA (BRL/KBRL), Etats-Unis d'Amérique
Numéro de vol:2627
Détails:
A Cessna 208B, N942AC, operating as Air Choice One flight 2627, was substantially damaged by high wind during taxi at Chicago O'Hare International Airport (ORD), Chicago, Illinois. The two flight crewmembers and five passengers were not injured and two passengers sustained minor injuries.
The captain reported that there had been numerous reports of windshear and microburst alerts and the airplane had been stationary while waiting for departure clearance. As the airplane began to taxi high wind lifted the airplane and it impacted the concrete taxiway surface on the left wing, left main gear, and the operating propeller. Witnesses reported that after impact the airplane remained partially nose down and resting on its left wing for several seconds. The airplane then fell back upright to come to rest on all three landing gear. The engine was secured, and all occupants deplaned normally through the main cabin door. A postaccident examination showed the outboard portion of the left wing was bent up about 30 degrees, the aileron was damaged, and all three propeller blades were impact damaged.

Sources:
» NTSB

METAR Weather report:
18:51 UTC / 13:51 local time:
METAR KORD 021851Z 24017G29KT 10SM FEW060 FEW250 32/19 A2975 RMK AO2 PK WND 25030/1834 SLP066 T03220189

19:29 UTC / 14:29 local time:
SPECI KORD 021929Z 23017G24KT 10SM TS FEW050CB SCT070 BKN090 BKN200 31/19 A2974 RMK AO2 PK WND 24027/1902 TSB28 FRQ LTGICCG W TS W MOV E T03110194

19:43 UTC / 14:43 local time:
SPECI KORD 021943Z 25016G45KT 2SM R10L/0700VP6000FT TSGSRA SCT050CB SCT070 BKN090 BKN200 27/22 A2976 RMK AO2 PK WND 27045/1940 RAB42GSB43 TSB28 PRESRR FRQ LTGICCG

19:47 UTC / 14:47 local time:
SPECI KORD 021947Z 24012G45KT 5SM R10L/0700VP6000FT TSRA FEW012 SCT050CB BKN090 BKN200 24/21 A2975 RMK AO2 PK WND 27045/1940 RAB42GSB43E47 TSB28 FRQ LTGICCG OHD TS OHD MOV E P0012

19:51 UTC / 14:51 local time:
METAR KORD 021951Z 24010G31KT 10SM R10L/1800VP6000FT -TSRA FEW012 SCT050CB BKN090 BKN200 26/21 A2975 RMK AO2 PK WND 27045/1940 RAB42GSB43E47 TSB28 SLP069 FRQ LTGICCG NE-SE TS


Photos

Add your photo of this accident or aircraft

Plan
Ce plan montre l'aéroport de départ ainsi que la supposée destination du vol. La ligne fixe reliant les deux aéroports n'est pas le plan de vol exact.
La distance entre Chicago-O'Hare International Airport, IL et Burlington Airport, IA est de 298 km (186 miles).

Les informations ci-dessus ne représentent pas l'opinion de la 'Flight Safety Foundation' ou de 'Aviation Safety Network' sur les causes de l'accident. Ces informations prélimimaires sont basées sur les faits tel qu'ils sont connus à ce jour.
languages: languages

Share